Time;durP1;ratioP1;P1;durP2;ratioP2;P2;SDS_P1;SDS_P2;PMS_P1;PMS_P2;Temp;Humidity;BMP_temperature;BMP_pressure;BME280_temperature;BME280_humidity;BME280_pressure;Samples;Min_cycle;Max_cycle;Signal;HPM_P1;HPM_P2
2021/01/09 00:02:03;;;;;;;20.92;10.93;;;;;;;21.43;45.30;156766.44;1751423;82;21733;-68
2021/01/09 00:04:36;;;;;;;24.10;12.98;;;;;;;21.27;45.26;156724.08;1774324;81;21211;-68
2021/01/09 00:07:11;;;;;;;25.23;11.48;;;;;;;21.26;45.91;156721.44;1774729;81;21198;-68
2021/01/09 00:09:43;;;;;;;21.00;11.25;;;;;;;21.12;46.00;156684.42;1775161;81;21284;-67
2021/01/09 00:12:16;;;;;;;23.92;12.30;;;;;;;21.22;45.67;156710.87;1774959;81;21242;-67
2021/01/09 00:14:48;;;;;;;18.90;9.98;;;;;;;21.35;45.24;156746.59;1774988;81;21218;-67
2021/01/09 00:17:21;;;;;;;25.37;11.05;;;;;;;21.29;45.93;156730.73;1775112;81;21233;-67
2021/01/09 00:19:54;;;;;;;22.27;10.58;;;;;;;21.35;45.92;156745.28;1774877;81;21187;-68
2021/01/09 00:22:26;;;;;;;19.35;10.90;;;;;;;21.39;45.99;156757.19;1774913;81;21286;-68
2021/01/09 00:24:59;;;;;;;20.85;10.25;;;;;;;21.45;45.94;156771.75;1775276;81;21345;-68
2021/01/09 00:27:32;;;;;;;21.55;10.45;;;;;;;21.52;46.00;156791.59;1774756;81;21832;-66
2021/01/09 00:30:06;;;;;;;22.70;10.80;;;;;;;21.61;46.22;156814.11;1774528;81;21328;-67
2021/01/09 00:32:39;;;;;;;19.32;9.93;;;;;;;21.69;46.49;156836.63;1774881;81;22341;-68
2021/01/09 00:35:12;;;;;;;20.65;9.65;;;;;;;21.80;46.55;156865.75;1774800;81;21228;-68
2021/01/09 00:37:45;;;;;;;19.62;10.18;;;;;;;21.88;46.59;156888.25;1774927;81;21228;-68
2021/01/09 00:40:17;;;;;;;19.17;10.98;;;;;;;21.94;46.58;156902.81;1774971;81;22512;-68
2021/01/09 00:42:49;;;;;;;18.90;9.78;;;;;;;22.09;46.61;156942.55;1774697;81;21237;-68
2021/01/09 00:45:22;;;;;;;19.48;10.40;;;;;;;22.06;46.56;156934.59;1774578;81;21225;-68
2021/01/09 00:47:54;;;;;;;23.12;11.05;;;;;;;21.97;46.24;156910.78;1751583;82;21257;-68
2021/01/09 00:50:27;;;;;;;20.75;10.60;;;;;;;21.97;45.71;156910.78;1751647;82;21376;-67
2021/01/09 00:52:59;;;;;;;20.20;10.23;;;;;;;21.87;45.86;156884.31;1761756;80;21178;-67
2021/01/09 00:55:32;;;;;;;17.57;9.88;;;;;;;21.97;45.69;156910.78;1774860;81;21195;-68
2021/01/09 00:58:04;;;;;;;22.55;11.40;;;;;;;21.95;45.89;156905.47;1774740;81;21226;-67
2021/01/09 01:00:37;;;;;;;21.02;11.65;;;;;;;21.99;45.75;156917.37;1774719;80;21222;-67
2021/01/09 01:03:10;;;;;;;22.32;11.53;;;;;;;21.99;46.01;156917.37;1774639;81;21250;-67
2021/01/09 01:05:46;;;;;;;20.95;10.85;;;;;;;22.29;45.71;156996.80;1774411;81;21189;-67
2021/01/09 01:08:18;;;;;;;22.32;11.70;;;;;;;22.55;45.40;157064.44;1774846;81;21212;-68
2021/01/09 01:10:54;;;;;;;22.80;11.73;;;;;;;22.48;45.17;157045.86;1774969;81;21193;-68
2021/01/09 01:13:26;;;;;;;21.65;11.40;;;;;;;22.30;45.71;156999.45;1774609;81;21248;-68
2021/01/09 01:15:58;;;;;;;22.37;11.08;;;;;;;22.40;45.78;157025.98;1774639;81;21214;-67
2021/01/09 01:18:31;;;;;;;24.63;11.78;;;;;;;22.54;45.59;157061.78;1775009;81;21193;-68
2021/01/09 01:21:03;;;;;;;20.12;10.10;;;;;;;22.54;45.28;157061.78;1774772;81;21198;-68
2021/01/09 01:23:36;;;;;;;20.48;10.03;;;;;;;22.50;45.19;157052.52;1779018;80;21681;-68
2021/01/09 01:26:13;;;;;;;18.75;10.13;;;;;;;22.62;45.40;157082.95;1761379;80;21218;-68
2021/01/09 01:28:45;;;;;;;21.33;11.10;;;;;;;22.68;45.61;157100.19;1751901;82;21338;-68
2021/01/09 01:31:17;;;;;;;20.25;10.65;;;;;;;22.74;45.80;157116.09;1751581;82;21234;-68
2021/01/09 01:33:49;;;;;;;21.07;11.03;;;;;;;22.80;45.79;157131.97;1751654;82;21767;-68
2021/01/09 01:36:22;;;;;;;21.82;11.85;;;;;;;22.74;45.90;157116.09;1751664;82;21203;-68
2021/01/09 01:38:54;;;;;;;19.17;10.55;;;;;;;22.89;45.68;157155.81;1751815;82;21285;-68
2021/01/09 01:41:26;;;;;;;18.85;9.88;;;;;;;22.80;45.51;157131.97;1751751;82;21207;-68
2021/01/09 01:43:59;;;;;;;27.50;11.88;;;;;;;22.56;45.37;157067.09;1751409;82;21219;-69
2021/01/09 01:46:31;;;;;;;26.60;12.00;;;;;;;22.36;45.86;157014.06;1771169;81;21364;-69
2021/01/09 01:49:05;;;;;;;23.02;11.30;;;;;;;22.67;45.43;157097.53;1774876;81;21213;-69
2021/01/09 01:51:38;;;;;;;22.30;12.53;;;;;;;22.21;45.81;156974.33;1774933;81;21922;-69
2021/01/09 01:54:11;;;;;;;25.55;13.28;;;;;;;22.22;46.12;156978.28;1774714;81;21268;-69
2021/01/09 01:56:43;;;;;;;30.23;14.20;;;;;;;22.27;45.69;156990.19;1774693;81;21378;-69
2021/01/09 01:59:15;;;;;;;29.98;14.00;;;;;;;22.26;45.41;156988.89;1775162;81;21669;-68
2021/01/09 02:01:50;;;;;;;29.20;14.53;;;;;;;22.08;45.51;156941.19;1775031;81;21218;-69
2021/01/09 02:04:23;;;;;;;27.00;13.32;;;;;;;22.12;45.09;156950.45;1772831;81;21241;-69
2021/01/09 02:06:55;;;;;;;27.58;14.38;;;;;;;21.90;45.63;156893.56;1751657;82;21287;-69
2021/01/09 02:09:29;;;;;;;24.15;12.10;;;;;;;21.75;45.53;156851.19;1751870;82;21249;-69
2021/01/09 02:12:19;;;;;;;24.32;12.33;;;;;;;21.88;44.71;156888.25;1751695;82;21286;-69
2021/01/09 02:14:57;;;;;;;26.70;12.80;;;;;;;21.94;44.89;156904.13;1751482;81;21231;-66
2021/01/09 02:17:30;;;;;;;27.40;14.33;;;;;;;21.83;45.13;156872.34;1751619;81;21215;-66
2021/01/09 02:20:02;;;;;;;28.23;12.30;;;;;;;21.78;45.15;156859.14;1751494;82;21388;-66
2021/01/09 02:22:44;;;;;;;27.13;12.68;;;;;;;21.45;45.12;156771.75;1755308;81;21635;-66
2021/01/09 02:25:17;;;;;;;29.25;13.88;;;;;;;21.48;45.61;156781.00;1735113;82;21205;-68
2021/01/09 02:27:51;;;;;;;29.00;13.32;;;;;;;21.52;45.53;156791.59;1723337;83;21225;-66
2021/01/09 02:30:28;;;;;;;24.27;12.03;;;;;;;21.46;45.13;156774.39;1723304;83;21322;-67
2021/01/09 02:33:10;;;;;;;25.40;12.98;;;;;;;21.27;45.38;156725.44;1724882;82;21324;-67
2021/01/09 02:35:43;;;;;;;24.98;13.03;;;;;;;21.25;45.23;156718.78;1723420;83;21323;-67
2021/01/09 02:38:15;;;;;;;25.65;13.35;;;;;;;21.25;45.60;156720.12;1723638;82;21398;-67
2021/01/09 02:40:47;;;;;;;22.15;11.95;;;;;;;21.40;45.17;156758.48;1723345;83;21292;-68
2021/01/09 02:43:20;;;;;;;27.42;13.68;;;;;;;21.16;45.40;156694.97;1723200;83;21355;-67
2021/01/09 02:45:52;;;;;;;22.15;12.18;;;;;;;21.30;45.79;156733.33;1723966;81;21216;-73
2021/01/09 02:48:24;;;;;;;27.10;12.93;;;;;;;21.44;45.67;156770.39;1721943;83;21842;-69
2021/01/09 02:50:56;;;;;;;22.48;12.25;;;;;;;21.55;45.42;156799.50;1721593;83;21211;-69
2021/01/09 02:53:29;;;;;;;23.47;12.20;;;;;;;21.35;45.15;156746.59;1721603;83;21238;-69
2021/01/09 02:56:02;;;;;;;23.95;11.70;;;;;;;21.28;45.63;156728.08;1721833;83;21385;-69
2021/01/09 02:58:34;;;;;;;24.82;14.00;;;;;;;21.20;45.60;156706.88;1721802;83;21711;-69
2021/01/09 03:01:07;;;;;;;27.60;13.05;;;;;;;21.28;44.98;156728.08;1728353;82;21345;-69
2021/01/09 03:03:39;;;;;;;24.02;12.55;;;;;;;21.31;45.05;156735.98;1751491;80;21315;-69
2021/01/09 03:06:12;;;;;;;23.00;12.23;;;;;;;21.21;44.09;156708.22;1751411;82;21250;-69
2021/01/09 03:08:45;;;;;;;28.12;13.50;;;;;;;21.06;43.86;156668.53;1751509;82;21710;-68
2021/01/09 03:11:18;;;;;;;22.40;11.43;;;;;;;21.16;45.18;156696.33;1751802;82;21187;-68
2021/01/09 03:13:51;;;;;;;26.10;13.68;;;;;;;21.13;44.82;156687.03;1751944;80;21222;-68
2021/01/09 03:16:23;;;;;;;24.72;12.45;;;;;;;21.01;45.24;156656.63;1756450;80;21366;-68
2021/01/09 03:18:55;;;;;;;23.95;12.25;;;;;;;21.14;43.86;156691.03;1777516;81;21443;-69
2021/01/09 03:21:30;;;;;;;28.25;12.63;;;;;;;21.21;45.15;156708.22;1777520;81;21316;-68
2021/01/09 03:24:02;;;;;;;26.42;13.60;;;;;;;21.28;45.21;156726.72;1777365;80;21323;-68
2021/01/09 03:26:35;;;;;;;24.32;12.33;;;;;;;21.52;45.01;156791.59;1774145;81;21903;-69
2021/01/09 03:29:07;;;;;;;22.48;11.90;;;;;;;21.62;45.16;156818.11;1777214;80;21359;-69
2021/01/09 03:31:39;;;;;;;23.15;11.78;;;;;;;21.51;45.30;156787.59;1777569;81;21209;-69
2021/01/09 03:34:12;;;;;;;26.10;13.08;;;;;;;21.46;45.55;156774.39;1777446;81;21422;-68
2021/01/09 03:36:45;;;;;;;24.72;12.20;;;;;;;21.47;45.75;156778.34;1777441;81;21225;-69
2021/01/09 03:39:17;;;;;;;23.87;12.43;;;;;;;21.56;45.50;156800.86;1777872;81;21245;-68
2021/01/09 03:41:49;;;;;;;24.32;12.30;;;;;;;21.59;45.25;156810.16;1776022;81;21182;-68
2021/01/09 03:44:22;;;;;;;24.77;12.47;;;;;;;21.55;45.20;156799.50;1777663;81;21229;-68
2021/01/09 03:46:54;;;;;;;23.07;12.45;;;;;;;21.53;44.95;156794.20;1777689;81;21205;-69
2021/01/09 03:49:26;;;;;;;23.80;11.75;;;;;;;21.59;45.08;156808.81;1777688;81;21378;-69
2021/01/09 03:51:59;;;;;;;24.75;13.35;;;;;;;21.42;44.99;156763.78;1777585;81;21202;-68
2021/01/09 03:54:31;;;;;;;26.97;14.40;;;;;;;21.26;45.56;156722.78;1777648;81;21292;-69
2021/01/09 03:57:05;;;;;;;27.75;13.62;;;;;;;21.18;45.23;156701.56;1776066;80;21302;-69
2021/01/09 03:59:37;;;;;;;25.55;12.18;;;;;;;21.13;45.72;156688.38;1777627;81;21309;-69
2021/01/09 04:02:09;;;;;;;27.17;14.15;;;;;;;20.99;45.42;156650.03;1777530;81;21740;-69
2021/01/09 04:04:42;;;;;;;25.45;13.38;;;;;;;20.94;45.61;156636.77;1777409;81;21435;-69
2021/01/09 04:07:14;;;;;;;28.07;13.20;;;;;;;20.69;45.57;156570.59;1777755;81;21236;-68
2021/01/09 04:09:47;;;;;;;26.65;12.90;;;;;;;21.06;45.93;156669.81;1777529;81;21308;-69
2021/01/09 04:12:19;;;;;;;29.65;13.78;;;;;;;21.14;45.95;156689.67;1745706;81;21225;-69
2021/01/09 04:14:52;;;;;;;26.75;13.85;;;;;;;21.25;45.48;156718.78;1777242;81;21229;-69
2021/01/09 04:17:24;;;;;;;27.65;13.13;;;;;;;21.26;45.88;156722.78;1775472;81;22367;-68
2021/01/09 04:19:57;;;;;;;27.58;13.40;;;;;;;21.41;45.35;156762.44;1774654;81;21240;-69
2021/01/09 04:22:30;;;;;;;26.00;12.98;;;;;;;21.49;45.45;156783.66;1774688;81;21343;-69
2021/01/09 04:25:02;;;;;;;21.82;12.25;;;;;;;21.92;44.78;156897.52;1774739;80;21340;-69
2021/01/09 04:27:35;;;;;;;26.73;12.90;;;;;;;21.58;44.55;156806.20;1774698;80;21292;-69
2021/01/09 04:30:08;;;;;;;27.15;14.18;;;;;;;21.57;43.42;156804.86;1774925;81;21218;-69
2021/01/09 04:32:41;;;;;;;31.12;14.28;;;;;;;21.65;44.30;156824.72;1774978;81;21193;-69
2021/01/09 04:35:13;;;;;;;27.98;13.75;;;;;;;20.86;45.34;156615.63;1774712;81;21248;-68
2021/01/09 04:37:46;;;;;;;27.37;13.85;;;;;;;20.58;46.46;156541.50;1774321;81;21357;-69
2021/01/09 04:40:18;;;;;;;28.23;14.33;;;;;;;20.45;44.98;156507.11;1774718;81;21286;-69
2021/01/09 04:42:50;;;;;;;27.93;14.73;;;;;;;20.49;46.06;156516.34;1774835;81;21194;-68
2021/01/09 04:45:22;;;;;;;31.55;15.35;;;;;;;20.21;46.87;156442.34;1775092;81;21164;-69
2021/01/09 04:47:55;;;;;;;31.05;15.78;;;;;;;20.18;45.66;156434.41;1774816;81;21214;-69
2021/01/09 04:50:28;;;;;;;27.40;14.95;;;;;;;20.41;45.74;156495.22;1753809;81;21250;-69
2021/01/09 04:53:01;;;;;;;30.55;14.45;;;;;;;20.35;45.88;156479.38;1774959;81;21200;-69
2021/01/09 04:55:33;;;;;;;28.45;14.50;;;;;;;20.47;46.43;156511.11;1774799;81;21199;-69
2021/01/09 04:58:06;;;;;;;24.63;13.25;;;;;;;20.19;46.14;156438.39;1751202;80;21329;-69
2021/01/09 05:00:38;;;;;;;30.85;14.30;;;;;;;20.32;46.78;156471.42;1751704;82;21197;-69
2021/01/09 05:03:10;;;;;;;29.20;14.43;;;;;;;20.25;45.75;156452.94;1751635;82;21266;-69
2021/01/09 05:05:43;;;;;;;26.27;14.20;;;;;;;20.27;46.23;156459.53;1751528;82;21357;-69
2021/01/09 05:08:15;;;;;;;29.27;14.47;;;;;;;20.26;46.39;156455.53;1751598;82;21251;-69
2021/01/09 05:10:49;;;;;;;28.52;13.48;;;;;;;19.82;47.12;156337.87;1751764;82;21688;-69
2021/01/09 05:13:25;;;;;;;28.98;13.28;;;;;;;20.19;47.23;156438.39;1751695;80;21215;-69
2021/01/09 05:15:57;;;;;;;30.05;14.40;;;;;;;20.34;46.33;156478.02;1753088;80;21206;-69
2021/01/09 05:18:33;;;;;;;31.30;14.23;;;;;;;20.13;46.59;156422.50;1775032;80;21296;-69
2021/01/09 05:21:12;;;;;;;27.90;13.98;;;;;;;20.42;47.03;156497.86;1748331;81;21320;-69
2021/01/09 05:23:52;;;;;;;31.27;14.35;;;;;;;20.36;46.85;156482.03;1777248;81;21209;-67
2021/01/09 05:26:24;;;;;;;32.60;13.93;;;;;;;19.63;47.36;156287.64;1776752;81;21276;-68
2021/01/09 05:28:59;;;;;;;32.73;15.90;;;;;;;19.21;45.90;156177.98;1777683;81;21268;-68
2021/01/09 05:31:35;;;;;;;31.25;15.10;;;;;;;19.43;47.51;156236.16;1777656;81;21360;-68
2021/01/09 05:34:06;;;;;;;27.77;14.35;;;;;;;19.45;46.97;156240.09;1777417;80;21210;-68
2021/01/09 05:36:40;;;;;;;28.05;13.65;;;;;;;19.62;47.08;156284.98;1769180;80;21167;-69
2021/01/09 05:39:12;;;;;;;30.17;13.98;;;;;;;19.63;46.78;156287.64;1726197;81;21329;-68
2021/01/09 05:41:45;;;;;;;31.97;14.98;;;;;;;19.73;47.12;156315.41;1756584;81;21327;-68
2021/01/09 05:44:17;;;;;;;32.70;15.70;;;;;;;19.76;46.64;156322.00;1756604;80;21318;-68
2021/01/09 05:46:49;;;;;;;32.98;16.20;;;;;;;19.70;47.19;156307.47;1756733;81;21251;-68
2021/01/09 05:49:25;;;;;;;39.27;17.75;;;;;;;19.44;46.93;156238.75;1758031;81;22390;-68
2021/01/09 05:51:57;;;;;;;40.58;16.52;;;;;;;19.73;47.53;156314.11;1726898;81;21318;-68
2021/01/09 05:54:37;;;;;;;34.45;15.28;;;;;;;19.75;47.36;156319.34;1750267;81;21381;-68
2021/01/09 05:57:11;;;;;;;36.88;17.20;;;;;;;19.68;47.91;156302.16;1757129;80;21403;-68
2021/01/09 05:59:45;;;;;;;36.75;16.85;;;;;;;19.13;56.83;156156.86;1750366;81;21844;-68
2021/01/09 06:02:17;;;;;;;38.78;17.27;;;;;;;19.23;57.78;156183.28;1756681;81;21337;-68
2021/01/09 06:04:50;;;;;;;37.53;16.87;;;;;;;19.15;57.90;156160.86;1756585;81;21832;-68
2021/01/09 06:07:24;;;;;;;41.13;18.70;;;;;;;19.17;58.18;156167.45;1756688;80;21439;-70
2021/01/09 06:10:11;;;;;;;34.65;16.07;;;;;;;19.22;57.85;156179.33;1756773;81;21685;-68
2021/01/09 06:12:51;;;;;;;38.45;16.80;;;;;;;19.57;51.37;156273.09;1742333;81;21354;-69
2021/01/09 06:15:25;;;;;;;33.60;16.70;;;;;;;18.73;66.01;156049.84;1740406;81;21215;-69
2021/01/09 06:17:58;;;;;;;38.05;17.73;;;;;;;18.77;61.26;156059.08;1743162;82;21714;-69
2021/01/09 06:20:31;;;;;;;32.65;16.97;;;;;;;18.64;57.40;156024.75;1768930;81;21225;-69
2021/01/09 06:23:03;;;;;;;37.03;17.65;;;;;;;18.55;57.93;156002.34;1777442;80;21194;-69
2021/01/09 06:25:35;;;;;;;30.02;14.90;;;;;;;18.91;57.22;156097.41;1777226;81;21244;-74
2021/01/09 06:28:08;;;;;;;32.53;15.30;;;;;;;19.06;53.65;156138.34;1777352;81;21225;-79
2021/01/09 06:30:41;;;;;;;35.05;16.35;;;;;;;19.21;52.65;156176.69;1777655;81;21315;-69
2021/01/09 06:33:16;;;;;;;32.58;15.45;;;;;;;19.40;51.62;156228.22;1777540;81;21351;-69
2021/01/09 06:35:48;;;;;;;33.28;16.00;;;;;;;19.39;51.89;156225.56;1771694;79;21177;-69
2021/01/09 06:38:22;;;;;;;28.57;14.65;;;;;;;19.47;51.86;156246.69;1773881;81;21214;-70
2021/01/09 06:40:54;;;;;;;30.62;14.98;;;;;;;19.99;50.55;156385.48;1773054;80;21883;-68
2021/01/09 06:43:27;;;;;;;30.55;15.72;;;;;;;19.89;50.92;156357.72;1775191;79;21216;-71
2021/01/09 06:45:59;;;;;;;31.42;14.98;;;;;;;20.15;50.96;156426.45;1772752;80;21316;-77
2021/01/09 06:48:32;;;;;;;29.85;15.08;;;;;;;20.05;49.94;156400.03;1773043;80;21257;-69
2021/01/09 06:51:08;;;;;;;31.97;15.70;;;;;;;20.14;49.84;156423.81;1772360;79;21372;-70
2021/01/09 06:53:41;;;;;;;29.05;14.90;;;;;;;20.38;48.24;156488.61;1771152;80;21406;-68
2021/01/09 06:56:13;;;;;;;34.03;15.55;;;;;;;20.36;48.97;156482.03;1774501;80;21323;-69
2021/01/09 06:58:46;;;;;;;32.10;15.85;;;;;;;20.45;48.63;156505.81;1689089;81;21224;-70
2021/01/09 07:01:23;;;;;;;33.23;16.23;;;;;;;20.77;47.54;156591.78;1743162;81;21312;-69
2021/01/09 07:03:56;;;;;;;31.73;14.85;;;;;;;20.23;47.61;156447.64;1773058;81;21218;-73
2021/01/09 07:07:01;;;;;;;34.58;15.10;;;;;;;20.45;47.99;156505.81;1772167;79;21265;-73
2021/01/09 07:09:35;;;;;;;31.10;15.23;;;;;;;20.20;48.43;156441.00;1773811;80;21423;-73
2021/01/09 07:12:08;;;;;;;31.82;15.40;;;;;;;20.19;46.85;156438.39;1742639;81;21236;-71
2021/01/09 07:14:40;;;;;;;31.00;16.80;;;;;;;20.38;48.51;156487.27;1744557;80;21828;-72
2021/01/09 07:17:14;;;;;;;32.63;15.32;;;;;;;20.24;46.43;156451.59;1742979;81;21362;-69
2021/01/09 07:19:46;;;;;;;32.00;14.87;;;;;;;20.39;47.96;156489.91;1723973;81;21415;-73
2021/01/09 07:22:19;;;;;;;31.95;16.12;;;;;;;20.73;47.23;156581.19;1734294;81;21350;-72
2021/01/09 07:24:52;;;;;;;32.67;15.08;;;;;;;20.86;47.08;156615.63;1718594;83;21389;-72
2021/01/09 07:27:24;;;;;;;34.53;16.00;;;;;;;20.93;47.66;156634.12;1703082;83;21877;-73
2021/01/09 07:29:57;;;;;;;33.08;15.93;;;;;;;20.80;45.51;156598.42;1662327;85;21284;-72
2021/01/09 07:32:53;;;;;;;29.32;14.20;;;;;;;20.88;47.25;156620.92;1722222;83;21238;-72
2021/01/09 07:35:27;;;;;;;29.98;16.07;;;;;;;20.73;46.57;156579.83;1726119;82;21359;-72
2021/01/09 07:38:02;;;;;;;32.42;15.28;;;;;;;20.82;47.73;156603.73;1722548;82;21402;-70
2021/01/09 07:40:49;;;;;;;31.00;15.13;;;;;;;20.92;47.68;156631.47;1722471;83;21330;-67
2021/01/09 07:43:41;;;;;;;33.10;16.02;;;;;;;21.25;45.88;156718.78;1743291;82;21373;-67
2021/01/09 07:46:32;;;;;;;29.15;15.00;;;;;;;21.05;45.00;156667.22;1750597;80;21175;-67
2021/01/09 07:49:05;;;;;;;32.23;15.15;;;;;;;20.92;46.15;156631.47;1734087;80;21176;-66
2021/01/09 07:51:55;;;;;;;30.52;15.72;;;;;;;20.90;47.26;156624.88;1722325;83;21252;-67
2021/01/09 07:54:43;;;;;;;32.35;16.07;;;;;;;22.01;46.14;156921.33;1722449;83;21253;-67
2021/01/09 07:57:25;;;;;;;29.27;16.07;;;;;;;21.47;43.79;156777.05;1732472;82;21824;-67
2021/01/09 08:00:05;;;;;;;32.28;16.27;;;;;;;22.30;45.88;156998.16;1751362;80;21741;-67
2021/01/09 08:02:40;;;;;;;32.42;15.68;;;;;;;21.78;45.87;156860.44;1751831;82;21188;-67
2021/01/09 08:05:20;;;;;;;32.15;15.65;;;;;;;22.08;45.09;156939.91;1751623;82;21239;-67
2021/01/09 08:08:02;;;;;;;33.67;17.50;;;;;;;23.47;43.61;157309.58;1751700;82;21219;-67
2021/01/09 08:10:35;;;;;;;30.35;16.15;;;;;;;23.21;43.81;157240.66;1751375;82;21758;-67
2021/01/09 08:13:08;;;;;;;29.98;15.38;;;;;;;23.34;42.28;157275.11;1751623;80;21377;-68
2021/01/09 08:15:42;;;;;;;30.37;15.15;;;;;;;21.57;44.86;156804.86;1751552;82;21884;-67
2021/01/09 08:18:15;;;;;;;37.17;16.10;;;;;;;21.18;46.70;156700.28;1751590;82;21230;-68
2021/01/09 08:20:51;;;;;;;35.78;16.77;;;;;;;21.20;46.10;156705.58;1751720;82;21207;-68
2021/01/09 08:23:24;;;;;;;33.18;15.35;;;;;;;22.18;44.86;156967.67;1751381;80;21393;-68
2021/01/09 08:25:56;;;;;;;33.70;17.35;;;;;;;20.36;44.72;156483.31;1751360;80;21909;-68
2021/01/09 08:28:29;;;;;;;28.75;15.40;;;;;;;20.75;46.67;156585.13;1751716;82;21230;-68
2021/01/09 08:31:01;;;;;;;33.08;15.70;;;;;;;20.76;46.29;156587.78;1751568;82;21235;-68
2021/01/09 08:33:34;;;;;;;34.25;16.75;;;;;;;21.10;46.97;156680.42;1751914;82;21218;-68
2021/01/09 08:36:07;;;;;;;30.02;15.53;;;;;;;20.74;46.24;156583.83;1751598;82;21682;-67
2021/01/09 08:38:39;;;;;;;29.07;15.08;;;;;;;20.65;46.09;156560.03;1751850;82;21250;-67
2021/01/09 08:41:11;;;;;;;34.33;15.72;;;;;;;20.92;46.45;156631.47;1751726;82;21667;-67
2021/01/09 08:43:44;;;;;;;29.80;14.38;;;;;;;20.75;45.84;156585.13;1751661;82;21691;-67
2021/01/09 08:46:16;;;;;;;32.08;17.00;;;;;;;20.65;44.81;156558.69;1751600;82;21722;-69
2021/01/09 08:48:48;;;;;;;31.73;15.03;;;;;;;20.36;44.60;156483.31;1751767;82;21219;-67
2021/01/09 08:51:22;;;;;;;33.85;15.70;;;;;;;20.47;46.74;156512.41;1751429;82;21365;-67
2021/01/09 08:54:07;;;;;;;28.25;15.08;;;;;;;20.77;46.78;156590.44;1755264;80;21199;-67
2021/01/09 08:56:40;;;;;;;30.77;15.43;;;;;;;21.08;44.22;156675.12;1750435;80;21251;-68
2021/01/09 08:59:12;;;;;;;33.48;15.85;;;;;;;21.08;44.15;156673.81;1751458;82;21211;-68
2021/01/09 09:01:51;;;;;;;28.52;14.87;;;;;;;21.51;46.11;156787.59;1683808;82;21730;-68
2021/01/09 09:04:24;;;;;;;30.77;15.58;;;;;;;20.98;43.56;156648.67;1751716;81;21194;-68
2021/01/09 09:07:03;;;;;;;28.27;14.18;;;;;;;20.49;42.61;156516.34;1751738;80;21314;-68
2021/01/09 09:09:41;;;;;;;31.95;15.85;;;;;;;20.89;43.34;156622.22;1751831;82;21234;-68
2021/01/09 09:12:13;;;;;;;32.58;16.82;;;;;;;21.26;43.71;156722.78;1730999;82;21353;-68
2021/01/09 09:15:00;;;;;;;34.40;16.05;;;;;;;21.25;43.78;156718.78;1755401;81;21333;-68
2021/01/09 09:17:32;;;;;;;28.15;14.65;;;;;;;21.18;43.53;156700.28;1751477;80;21369;-68
2021/01/09 09:20:06;;;;;;;29.07;14.43;;;;;;;21.21;44.42;156709.53;1751755;82;21222;-68
2021/01/09 09:22:38;;;;;;;31.97;15.83;;;;;;;21.01;43.72;156655.27;1751756;80;21226;-68
2021/01/09 09:25:11;;;;;;;29.48;15.30;;;;;;;21.11;43.78;156683.08;1775483;81;21376;-68
2021/01/09 09:27:48;;;;;;;35.48;14.95;;;;;;;20.93;42.67;156634.12;1770699;80;21223;-68
2021/01/09 09:30:19;;;;;;;29.27;15.05;;;;;;;21.01;43.46;156656.63;1777777;81;21187;-68
2021/01/09 09:32:51;;;;;;;29.52;14.83;;;;;;;20.62;43.08;156550.73;1777619;81;21203;-68
2021/01/09 09:35:28;;;;;;;28.85;14.58;;;;;;;21.22;43.40;156712.17;1777837;81;21198;-68
2021/01/09 09:38:03;;;;;;;28.40;14.05;;;;;;;21.56;42.68;156800.86;1777494;81;21369;-68
2021/01/09 09:40:35;;;;;;;30.40;12.90;;;;;;;21.20;41.67;156705.58;1777680;81;21168;-67
2021/01/09 09:43:20;;;;;;;24.72;12.88;;;;;;;21.24;41.21;156717.48;1777416;81;21227;-67
2021/01/09 09:46:04;;;;;;;26.65;13.10;;;;;;;21.30;41.53;156733.33;1777478;81;21242;-67
2021/01/09 09:48:38;;;;;;;26.95;13.83;;;;;;;21.43;41.44;156766.44;1775770;81;21777;-67
2021/01/09 09:51:12;;;;;;;29.18;13.80;;;;;;;21.44;40.65;156770.39;1777412;81;21770;-68
2021/01/09 09:53:54;;;;;;;30.70;13.75;;;;;;;21.54;40.43;156796.84;1777673;81;21710;-64
2021/01/09 09:56:27;;;;;;;21.73;11.85;;;;;;;22.02;40.49;156923.98;1767107;80;21327;-65
2021/01/09 09:59:07;;;;;;;27.17;12.18;;;;;;;21.73;39.51;156845.88;1774109;80;21205;-65
2021/01/09 10:01:40;;;;;;;23.60;12.07;;;;;;;21.43;40.49;156766.44;1774681;80;21669;-68
2021/01/09 10:04:21;;;;;;;29.23;13.53;;;;;;;21.73;40.97;156847.23;1773440;80;21371;-68
2021/01/09 10:06:57;;;;;;;24.63;12.65;;;;;;;21.72;40.47;156844.58;1740045;81;21331;-68
2021/01/09 10:09:34;;;;;;;25.27;11.68;;;;;;;21.68;39.95;156833.97;1774213;80;21402;-65
2021/01/09 10:12:09;;;;;;;25.35;12.28;;;;;;;21.65;39.74;156826.02;1744242;81;21875;-66
2021/01/09 10:14:43;;;;;;;24.18;12.15;;;;;;;20.22;41.75;156445.00;1742366;80;21697;-65
2021/01/09 10:17:17;;;;;;;21.00;11.00;;;;;;;21.59;40.84;156810.16;1775031;80;21337;-66
2021/01/09 10:19:49;;;;;;;21.90;10.70;;;;;;;20.72;39.94;156577.19;1774759;81;21404;-68
2021/01/09 10:22:22;;;;;;;23.62;11.95;;;;;;;21.19;39.61;156704.22;1775104;81;21371;-67
2021/01/09 10:24:56;;;;;;;23.05;11.30;;;;;;;21.52;39.82;156791.59;1772718;80;21371;-71
2021/01/09 10:27:29;;;;;;;22.27;11.03;;;;;;;20.79;39.71;156597.08;1766261;80;21693;-68
2021/01/09 10:30:03;;;;;;;24.90;12.47;;;;;;;21.03;39.99;156660.58;1766945;80;21209;-67
2021/01/09 10:32:35;;;;;;;23.35;11.38;;;;;;;21.32;40.93;156738.63;1767377;81;21823;-66
2021/01/09 10:35:10;;;;;;;22.05;10.23;;;;;;;20.91;39.76;156628.81;1765633;80;21727;-68
2021/01/09 10:37:43;;;;;;;19.77;10.00;;;;;;;20.34;40.58;156476.72;1768657;81;21214;-67
2021/01/09 10:40:15;;;;;;;22.90;12.13;;;;;;;20.37;40.98;156484.67;1769066;81;21276;-66
2021/01/09 10:42:48;;;;;;;20.45;10.30;;;;;;;21.15;40.70;156693.67;1767675;80;21371;-67
2021/01/09 10:45:20;;;;;;;21.65;10.82;;;;;;;21.69;40.19;156835.33;1766436;80;21268;-67
2021/01/09 10:47:53;;;;;;;21.05;10.63;;;;;;;21.41;40.71;156761.14;1766447;81;21240;-67
2021/01/09 10:50:25;;;;;;;23.57;10.75;;;;;;;21.00;39.21;156652.67;1769103;81;21193;-68
2021/01/09 10:52:58;;;;;;;22.70;11.15;;;;;;;21.44;39.94;156770.39;1768373;80;21229;-67
2021/01/09 10:55:30;;;;;;;19.60;10.60;;;;;;;21.46;39.68;156775.69;1766652;81;21348;-68
2021/01/09 10:58:04;;;;;;;26.80;12.58;;;;;;;20.85;39.77;156612.97;1769956;81;21288;-68
2021/01/09 11:00:36;;;;;;;19.90;10.53;;;;;;;21.61;41.02;156814.11;1767018;81;21228;-68
2021/01/09 11:03:09;;;;;;;21.15;10.63;;;;;;;21.61;39.59;156815.47;1769953;80;21728;-68
2021/01/09 11:05:44;;;;;;;23.77;11.73;;;;;;;20.70;39.15;156573.23;1767338;81;21241;-66
2021/01/09 11:08:17;;;;;;;22.52;11.30;;;;;;;20.75;39.95;156586.48;1767012;79;21240;-67
2021/01/09 11:10:50;;;;;;;20.90;10.30;;;;;;;21.25;40.08;156720.12;1768759;79;21234;-67
2021/01/09 11:13:23;;;;;;;20.15;10.63;;;;;;;21.03;39.01;156661.92;1768807;81;21336;-70
2021/01/09 11:15:55;;;;;;;21.20;10.63;;;;;;;21.23;39.93;156713.53;1769865;81;21178;-71
2021/01/09 11:18:28;;;;;;;24.40;12.43;;;;;;;21.64;38.34;156823.42;1769599;81;21831;-70
2021/01/09 11:21:01;;;;;;;24.57;11.48;;;;;;;21.99;38.47;156917.37;1771565;81;21202;-72
2021/01/09 11:23:33;;;;;;;21.95;10.93;;;;;;;21.25;38.74;156720.12;1771353;81;21209;-71
2021/01/09 11:26:06;;;;;;;22.93;11.78;;;;;;;21.36;38.87;156749.23;1776296;80;21217;-71
2021/01/09 11:28:38;;;;;;;23.47;11.73;;;;;;;21.38;38.67;156754.53;1776670;81;21319;-71
2021/01/09 11:31:11;;;;;;;23.47;10.90;;;;;;;21.18;39.56;156701.56;1776737;81;21276;-71
2021/01/09 11:33:43;;;;;;;29.10;14.30;;;;;;;21.16;38.97;156696.33;1776753;81;21351;-72
2021/01/09 11:36:16;;;;;;;31.33;15.43;;;;;;;21.05;39.19;156667.22;1776662;81;21233;-71
2021/01/09 11:38:49;;;;;;;23.75;12.35;;;;;;;21.19;38.85;156702.92;1776749;81;21320;-71
2021/01/09 11:41:22;;;;;;;23.98;12.40;;;;;;;21.23;38.89;156713.53;1759214;81;21361;-70